Time;durP1;ratioP1;P1;durP2;ratioP2;P2;SDS_P1;SDS_P2;PMS_P1;PMS_P2;Temp;Humidity;BMP_temperature;BMP_pressure;BME280_temperature;BME280_humidity;BME280_pressure;Samples;Min_cycle;Max_cycle;Signal;HPM_P1;HPM_P2
2022/10/17 00:02:26;;;;;;;12.00;9.30;;;13.30;1.00;;;;;;5016099;28;20189;-69
2022/10/17 00:04:53;;;;;;;10.57;8.90;;;13.30;1.00;;;;;;4998786;28;20196;-69
2022/10/17 00:07:20;;;;;;;11.50;8.83;;;13.30;1.00;;;;;;4998965;28;20237;-70
2022/10/17 00:09:47;;;;;;;9.33;8.43;;;13.30;38.40;;;;;;4998346;28;20208;-69
2022/10/17 00:12:14;;;;;;;8.73;7.87;;;13.30;99.90;;;;;;4998769;28;20739;-69
2022/10/17 00:14:41;;;;;;;9.30;8.50;;;13.30;99.90;;;;;;5015623;28;20359;-70
2022/10/17 00:17:08;;;;;;;11.93;8.73;;;13.20;99.90;;;;;;4989818;28;20193;-68
2022/10/17 00:19:35;;;;;;;11.47;9.30;;;13.20;99.90;;;;;;5031178;28;20194;-68
2022/10/17 00:22:02;;;;;;;10.13;9.20;;;13.20;1.00;;;;;;4996990;28;20197;-69
2022/10/17 00:24:30;;;;;;;10.03;9.03;;;13.20;1.00;;;;;;4989194;28;20747;-69
2022/10/17 00:26:57;;;;;;;11.47;9.17;;;13.20;1.00;;;;;;5013740;28;20198;-67
2022/10/17 00:29:24;;;;;;;9.87;8.47;;;13.20;1.00;;;;;;5001158;28;20205;-69
2022/10/17 00:31:55;;;;;;;11.43;8.73;;;13.10;1.00;;;;;;4996196;28;20334;-67
2022/10/17 00:34:23;;;;;;;9.27;8.17;;;13.10;1.00;;;;;;5026357;28;20219;-68
2022/10/17 00:36:51;;;;;;;9.47;8.37;;;13.10;1.00;;;;;;4993300;28;20189;-69
2022/10/17 00:39:18;;;;;;;12.40;8.20;;;13.00;1.00;;;;;;5013071;28;20497;-68
2022/10/17 00:41:45;;;;;;;8.80;7.90;;;13.10;1.00;;;;;;5012437;28;20304;-70
2022/10/17 00:44:30;;;;;;;12.13;8.33;;;13.00;1.00;;;;;;5014155;28;20206;-70
2022/10/17 00:47:01;;;;;;;9.30;8.40;;;13.00;99.90;;;;;;4997696;28;20185;-67
2022/10/17 00:49:33;;;;;;;10.73;8.53;;;13.00;99.90;;;;;;4999540;28;20276;-67
2022/10/17 00:52:13;;;;;;;10.53;8.27;;;13.00;99.90;;;;;;5012760;28;20205;-68
2022/10/17 00:54:44;;;;;;;9.70;8.63;;;13.00;99.90;;;;;;5029897;28;20616;-69
2022/10/17 00:57:13;;;;;;;9.37;8.47;;;13.00;99.90;;;;;;5030959;28;20251;-69
2022/10/17 00:59:47;;;;;;;9.23;8.30;;;13.00;99.90;;;;;;5028340;28;20303;-66
2022/10/17 01:02:18;;;;;;;9.83;8.93;;;12.90;1.00;;;;;;5012531;28;20213;-65
2022/10/17 01:04:49;;;;;;;9.93;8.67;;;13.00;1.00;;;;;;4995884;28;20193;-67
2022/10/17 01:07:16;;;;;;;9.27;8.33;;;12.90;1.00;;;;;;5029201;28;20263;-66
2022/10/17 01:09:45;;;;;;;10.83;8.43;;;12.90;1.00;;;;;;5029158;28;20202;-65
2022/10/17 01:12:25;;;;;;;8.70;7.97;;;12.80;1.00;;;;;;4992944;28;20774;-66
2022/10/17 01:15:08;;;;;;;11.97;9.03;;;12.80;1.00;;;;;;4997028;28;20219;-67
2022/10/17 01:17:48;;;;;;;9.53;8.63;;;12.80;1.00;;;;;;4998552;28;20182;-66
2022/10/17 01:20:31;;;;;;;9.93;9.03;;;12.80;1.00;;;;;;4994263;28;20197;-67
2022/10/17 01:23:19;;;;;;;9.23;8.33;;;12.80;1.00;;;;;;4997702;28;20292;-67
2022/10/17 01:26:13;;;;;;;11.10;9.10;;;12.80;1.00;;;;;;4997086;28;20301;-66
2022/10/17 01:28:58;;;;;;;13.07;9.50;;;12.80;1.00;;;;;;5030377;28;20567;-66
2022/10/17 01:31:44;;;;;;;11.33;9.43;;;12.80;1.00;;;;;;5008188;28;20201;-65
2022/10/17 01:34:20;;;;;;;11.20;9.33;;;12.80;1.00;;;;;;4997078;28;20221;-66
2022/10/17 01:36:58;;;;;;;10.57;9.50;;;12.80;1.00;;;;;;5012566;28;20664;-65
2022/10/17 01:40:15;;;;;;;9.43;8.53;;;12.80;1.00;;;;;;5011484;28;20209;-68
2022/10/17 01:43:31;;;;;;;14.17;9.73;;;12.80;1.00;;;;;;4999330;28;20610;-66
2022/10/17 01:46:03;;;;;;;14.43;10.13;;;12.80;12.60;;;;;;4998618;28;20275;-66
2022/10/17 01:48:36;;;;;;;11.37;10.17;;;12.80;8.90;;;;;;5009497;28;20600;-66
2022/10/17 01:51:36;;;;;;;14.83;11.43;;;12.80;29.50;;;;;;5002548;28;20270;-66
2022/10/17 01:54:19;;;;;;;11.97;10.73;;;12.90;60.40;;;;;;5000915;28;20719;-66
2022/10/17 01:56:50;;;;;;;12.80;10.63;;;12.90;83.50;;;;;;4994063;28;20282;-67
2022/10/17 01:59:24;;;;;;;14.43;12.27;;;12.90;94.80;;;;;;5028828;28;20198;-66
2022/10/17 02:01:56;;;;;;;14.87;12.07;;;12.90;99.10;;;;;;5009930;28;20259;-66
2022/10/17 02:04:24;;;;;;;12.50;11.27;;;12.90;99.90;;;;;;4996459;28;20209;-68
2022/10/17 02:06:51;;;;;;;14.50;11.27;;;12.90;99.90;;;;;;5009234;28;20233;-67
2022/10/17 02:09:24;;;;;;;14.23;11.87;;;12.90;99.90;;;;;;4995338;28;20223;-67
2022/10/17 02:12:12;;;;;;;16.40;12.57;;;12.90;99.90;;;;;;4995909;28;20201;-65
2022/10/17 02:15:01;;;;;;;14.67;12.00;;;13.00;99.90;;;;;;5003233;28;20690;-66
2022/10/17 02:17:43;;;;;;;12.87;11.67;;;12.90;99.90;;;;;;5027402;28;20534;-66
2022/10/17 02:20:23;;;;;;;12.40;11.20;;;12.90;99.90;;;;;;5002325;28;20485;-69
2022/10/17 02:23:21;;;;;;;11.63;10.43;;;13.00;99.90;;;;;;4995754;28;20206;-69
2022/10/17 02:26:05;;;;;;;12.60;11.37;;;12.90;99.90;;;;;;4994247;28;20260;-69
2022/10/17 02:29:01;;;;;;;11.67;10.57;;;12.90;99.90;;;;;;5010092;28;20637;-68
2022/10/17 02:31:33;;;;;;;16.10;11.13;;;12.90;99.90;;;;;;5010968;28;20228;-69
2022/10/17 02:34:10;;;;;;;12.27;10.97;;;12.90;99.90;;;;;;4995890;28;20195;-69
2022/10/17 02:36:42;;;;;;;17.27;11.57;;;12.90;99.90;;;;;;4995245;28;20205;-69
2022/10/17 02:39:11;;;;;;;10.80;9.70;;;12.90;99.90;;;;;;4996416;28;20685;-68
2022/10/17 02:41:39;;;;;;;13.30;9.93;;;12.90;99.90;;;;;;5003598;28;20197;-68
2022/10/17 02:44:08;;;;;;;12.50;9.50;;;12.80;99.90;;;;;;4997660;28;20567;-68
2022/10/17 02:46:37;;;;;;;11.97;10.73;;;12.80;99.90;;;;;;4997588;28;20293;-68
2022/10/17 02:49:20;;;;;;;15.73;14.07;;;12.80;99.90;;;;;;5012502;28;20237;-67
2022/10/17 02:52:14;;;;;;;14.40;12.90;;;12.80;99.90;;;;;;4996895;28;20237;-67
2022/10/17 02:54:44;;;;;;;16.87;15.07;;;12.70;99.90;;;;;;5010658;28;20210;-66
2022/10/17 02:57:20;;;;;;;19.17;15.90;;;12.70;99.90;;;;;;5003973;28;20559;-67
2022/10/17 02:59:49;;;;;;;20.70;18.53;;;12.70;99.90;;;;;;4994340;28;20201;-65
2022/10/17 03:02:16;;;;;;;23.73;18.03;;;12.70;99.90;;;;;;4993272;28;20197;-65
2022/10/17 03:04:45;;;;;;;13.50;12.07;;;12.70;99.90;;;;;;4995861;28;20260;-65
2022/10/17 03:07:12;;;;;;;25.30;21.63;;;12.60;99.90;;;;;;4995031;28;20236;-68
2022/10/17 03:09:39;;;;;;;16.47;13.17;;;12.60;99.90;;;;;;4993580;28;20201;-68
2022/10/17 03:12:06;;;;;;;15.87;12.87;;;12.60;99.90;;;;;;4994613;28;20201;-68
2022/10/17 03:14:34;;;;;;;20.77;16.10;;;12.50;99.90;;;;;;4994041;28;20720;-68
2022/10/17 03:17:02;;;;;;;15.00;13.40;;;12.50;99.90;;;;;;5029171;28;20225;-67
2022/10/17 03:19:29;;;;;;;20.20;15.40;;;12.50;99.90;;;;;;4992235;28;20284;-68
2022/10/17 03:21:56;;;;;;;20.03;17.87;;;12.50;99.90;;;;;;5010096;28;20221;-68
2022/10/17 03:24:23;;;;;;;21.00;14.47;;;12.50;99.90;;;;;;5027503;28;20243;-67
2022/10/17 03:26:50;;;;;;;16.97;14.83;;;12.50;99.90;;;;;;5011359;28;20300;-68
2022/10/17 03:29:17;;;;;;;17.97;13.40;;;12.60;99.90;;;;;;5009019;28;20627;-69
2022/10/17 03:31:45;;;;;;;20.63;17.30;;;12.70;99.90;;;;;;5010302;28;20205;-68
2022/10/17 03:34:12;;;;;;;17.73;12.67;;;12.70;99.90;;;;;;5010979;28;20732;-69
2022/10/17 03:36:39;;;;;;;14.47;12.70;;;12.70;99.90;;;;;;4993624;28;20224;-68
2022/10/17 03:39:06;;;;;;;18.70;14.67;;;12.70;99.90;;;;;;5025886;28;21006;-68
2022/10/17 03:41:34;;;;;;;18.60;13.33;;;12.60;99.90;;;;;;5010165;28;20752;-69
2022/10/17 03:44:01;;;;;;;14.53;13.00;;;12.60;99.90;;;;;;5012990;28;20205;-68
2022/10/17 03:46:28;;;;;;;14.73;12.63;;;12.60;99.90;;;;;;5030130;28;21068;-69
2022/10/17 03:48:57;;;;;;;15.17;13.53;;;12.50;99.90;;;;;;5013895;28;20665;-69
2022/10/17 03:51:25;;;;;;;16.47;13.53;;;12.50;99.90;;;;;;5030760;28;20797;-69
2022/10/17 03:53:58;;;;;;;14.73;13.23;;;12.50;99.90;;;;;;5013974;28;20206;-69
2022/10/17 03:56:26;;;;;;;15.93;12.83;;;12.50;99.90;;;;;;4998602;28;20300;-69
2022/10/17 03:59:01;;;;;;;14.87;13.23;;;12.40;99.90;;;;;;5015267;28;20193;-69
2022/10/17 04:01:30;;;;;;;15.20;13.60;;;12.40;99.90;;;;;;4998952;28;20252;-69
2022/10/17 04:03:58;;;;;;;15.30;12.97;;;12.40;99.90;;;;;;5015659;28;20910;-69
2022/10/17 04:06:29;;;;;;;18.50;11.93;;;12.40;99.90;;;;;;5013710;28;20229;-69
2022/10/17 04:08:56;;;;;;;15.63;12.77;;;12.40;99.90;;;;;;5019760;28;20204;-68
2022/10/17 04:11:41;;;;;;;13.80;12.40;;;12.40;99.90;;;;;;4998703;28;20211;-68
2022/10/17 04:14:09;;;;;;;14.90;13.13;;;12.30;99.90;;;;;;5032130;28;20206;-68
2022/10/17 04:16:37;;;;;;;16.13;13.17;;;12.40;99.90;;;;;;4996948;28;20522;-68
2022/10/17 04:19:12;;;;;;;15.10;12.17;;;12.40;99.90;;;;;;5031427;28;20216;-68
2022/10/17 04:21:43;;;;;;;18.23;12.17;;;12.40;99.90;;;;;;5013725;28;20197;-68
2022/10/17 04:24:11;;;;;;;16.50;11.50;;;12.40;99.90;;;;;;5013607;28;20193;-68
2022/10/17 04:26:56;;;;;;;12.83;11.20;;;12.40;99.90;;;;;;4997049;28;20204;-69
2022/10/17 04:29:27;;;;;;;13.70;11.07;;;12.40;99.90;;;;;;4998854;28;20201;-66
2022/10/17 04:32:03;;;;;;;13.83;11.50;;;12.50;99.90;;;;;;5012402;28;20208;-66
2022/10/17 04:34:37;;;;;;;18.87;11.93;;;12.50;99.90;;;;;;5027137;28;20193;-66
2022/10/17 04:37:04;;;;;;;13.47;11.23;;;12.60;99.90;;;;;;5015045;28;20300;-66
2022/10/17 04:39:32;;;;;;;16.10;11.40;;;12.50;99.90;;;;;;5000132;28;20204;-66
2022/10/17 04:41:59;;;;;;;13.10;11.70;;;12.40;99.90;;;;;;4998846;28;20205;-67
2022/10/17 04:44:29;;;;;;;13.30;11.13;;;12.40;99.90;;;;;;4993949;28;20736;-66
2022/10/17 04:46:57;;;;;;;14.73;12.70;;;12.40;99.90;;;;;;4999020;28;20571;-67
2022/10/17 04:49:25;;;;;;;16.73;13.17;;;12.30;99.90;;;;;;4998789;28;20640;-66
2022/10/17 04:51:56;;;;;;;14.67;12.30;;;12.40;99.90;;;;;;5032266;28;20620;-66
2022/10/17 04:54:46;;;;;;;18.87;14.43;;;12.30;99.90;;;;;;4998219;28;20222;-67
2022/10/17 04:57:14;;;;;;;14.77;12.50;;;12.30;99.90;;;;;;5000349;28;21112;-66
2022/10/17 04:59:48;;;;;;;17.30;13.00;;;12.30;99.90;;;;;;4998281;28;20252;-65
2022/10/17 05:02:26;;;;;;;21.73;15.90;;;12.30;99.90;;;;;;5001513;28;20236;-66
2022/10/17 05:04:54;;;;;;;19.37;15.67;;;12.30;99.90;;;;;;4996984;28;20295;-65
2022/10/17 05:07:21;;;;;;;18.93;14.43;;;12.40;99.90;;;;;;5000288;28;20239;-65
2022/10/17 05:10:01;;;;;;;16.40;13.40;;;12.40;99.90;;;;;;4999774;28;20188;-66
2022/10/17 05:12:28;;;;;;;15.10;12.23;;;12.50;99.90;;;;;;5032247;28;20829;-67
2022/10/17 05:14:56;;;;;;;14.17;11.47;;;12.50;99.90;;;;;;5022086;28;20209;-66
2022/10/17 05:17:25;;;;;;;14.33;11.87;;;12.50;99.90;;;;;;5005703;28;20715;-65
2022/10/17 05:19:52;;;;;;;14.03;11.93;;;12.50;99.90;;;;;;4999171;28;20193;-66
2022/10/17 05:22:19;;;;;;;13.23;11.47;;;12.50;99.90;;;;;;4994368;28;20644;-66
2022/10/17 05:24:46;;;;;;;14.63;11.23;;;12.50;99.90;;;;;;5014664;28;20205;-66
2022/10/17 05:27:13;;;;;;;12.77;10.33;;;12.60;99.90;;;;;;5032424;28;20287;-65
2022/10/17 05:29:40;;;;;;;12.93;10.73;;;12.60;99.90;;;;;;5000561;28;20314;-66
2022/10/17 05:32:15;;;;;;;13.17;9.97;;;12.60;99.90;;;;;;5028415;28;20211;-68
2022/10/17 05:34:42;;;;;;;16.00;10.53;;;12.50;99.90;;;;;;4997569;28;20744;-66
2022/10/17 05:37:09;;;;;;;12.33;11.03;;;12.40;99.90;;;;;;4998009;28;20223;-68
2022/10/17 05:39:37;;;;;;;10.93;9.40;;;12.40;99.90;;;;;;5015965;28;20314;-67
2022/10/17 05:42:04;;;;;;;11.07;9.87;;;12.40;99.90;;;;;;5013163;28;20207;-66
2022/10/17 05:44:32;;;;;;;13.50;10.83;;;12.40;99.90;;;;;;4998400;28;20201;-65
2022/10/17 05:46:59;;;;;;;11.83;10.63;;;12.40;99.90;;;;;;5015556;28;20424;-66
2022/10/17 05:49:27;;;;;;;12.60;10.60;;;12.40;99.90;;;;;;5014054;28;20742;-65
2022/10/17 05:52:14;;;;;;;12.30;10.97;;;12.40;99.90;;;;;;5016176;28;20201;-65
2022/10/17 05:54:55;;;;;;;15.83;11.83;;;12.40;99.90;;;;;;5025969;28;20185;-65
2022/10/17 05:57:25;;;;;;;16.27;10.83;;;12.40;99.90;;;;;;5004784;28;20220;-65
2022/10/17 05:59:52;;;;;;;17.47;11.90;;;12.40;99.90;;;;;;5030985;28;20282;-67
2022/10/17 06:02:20;;;;;;;16.43;11.80;;;12.40;99.90;;;;;;5013353;28;20208;-66
2022/10/17 06:04:48;;;;;;;14.33;10.90;;;12.40;99.90;;;;;;4996739;28;20208;-66
2022/10/17 06:07:17;;;;;;;16.63;11.63;;;12.40;99.90;;;;;;5011557;28;20680;-67
2022/10/17 06:09:44;;;;;;;13.60;11.57;;;12.50;99.90;;;;;;4994830;28;20694;-68
2022/10/17 06:12:16;;;;;;;16.20;11.40;;;12.50;99.90;;;;;;5002488;28;20707;-66
2022/10/17 06:14:44;;;;;;;11.57;9.97;;;12.60;99.90;;;;;;5014622;28;20669;-67
2022/10/17 06:17:12;;;;;;;12.67;11.33;;;12.70;99.90;;;;;;5028616;28;20750;-67
2022/10/17 06:19:43;;;;;;;12.47;11.20;;;12.80;99.90;;;;;;5030020;28;20194;-65
2022/10/17 06:22:12;;;;;;;13.03;11.73;;;12.90;99.90;;;;;;4998961;28;20207;-66
2022/10/17 06:24:40;;;;;;;13.10;11.70;;;13.00;99.90;;;;;;5015878;28;20200;-67
2022/10/17 06:27:07;;;;;;;14.00;12.70;;;13.10;99.90;;;;;;5004668;28;20212;-67
2022/10/17 06:29:38;;;;;;;14.93;11.73;;;13.20;99.90;;;;;;4997669;28;20597;-68
2022/10/17 06:32:06;;;;;;;13.00;11.33;;;13.30;99.90;;;;;;4996957;28;20648;-66
2022/10/17 06:34:39;;;;;;;11.37;10.27;;;13.50;99.90;;;;;;4999550;28;20645;-66
2022/10/17 06:37:06;;;;;;;16.70;10.90;;;13.50;99.90;;;;;;4998512;28;20210;-66
2022/10/17 06:39:35;;;;;;;11.53;9.60;;;13.60;94.50;;;;;;5004431;28;20201;-67
2022/10/17 06:42:06;;;;;;;13.93;9.43;;;13.60;1.00;;;;;;4998378;28;20201;-66
2022/10/17 06:44:44;;;;;;;12.00;9.57;;;13.70;1.00;;;;;;5015550;28;20291;-66
2022/10/17 06:47:30;;;;;;;11.10;9.60;;;13.70;1.00;;;;;;5026106;28;20391;-66
2022/10/17 06:50:01;;;;;;;12.50;9.35;;;13.80;1.00;;;;;;5030081;28;20194;-68
2022/10/17 06:52:34;;;;;;;10.40;9.15;;;13.80;1.00;;;;;;4997096;28;20817;-67
2022/10/17 06:55:19;;;;;;;10.33;9.10;;;13.90;1.00;;;;;;5014560;28;20455;-66
2022/10/17 06:58:12;;;;;;;10.57;9.03;;;14.00;1.00;;;;;;5003212;28;20216;-68
2022/10/17 07:00:49;;;;;;;11.95;8.30;;;14.20;99.90;;;;;;4998248;28;20296;-66
2022/10/17 07:03:17;;;;;;;11.32;8.13;;;14.60;7.70;;;;;;4997758;28;20223;-66
2022/10/17 07:05:51;;;;;;;9.32;8.18;;;14.70;92.70;;;;;;4988682;28;20746;-65
2022/10/17 07:08:18;;;;;;;10.70;7.75;;;14.90;99.90;;;;;;5015269;28;20750;-65
2022/10/17 07:10:45;;;;;;;8.27;7.47;;;15.00;1.00;;;;;;5001037;28;20221;-65
2022/10/17 07:13:12;;;;;;;7.93;7.13;;;15.10;1.00;;;;;;5014858;28;20213;-66
2022/10/17 07:15:40;;;;;;;8.57;7.70;;;15.30;1.00;;;;;;5015558;28;20271;-66
2022/10/17 07:18:08;;;;;;;10.45;9.45;;;15.40;99.90;;;;;;5016859;28;20229;-65
2022/10/17 07:20:35;;;;;;;13.10;10.10;;;15.60;99.90;;;;;;5002146;28;20216;-65
2022/10/17 07:23:02;;;;;;;11.82;9.93;;;15.70;99.90;;;;;;4990601;28;20621;-68
2022/10/17 07:25:29;;;;;;;12.75;10.45;;;15.90;25.30;;;;;;5035883;28;20992;-65
2022/10/17 07:28:01;;;;;;;14.82;9.82;;;16.20;1.00;;;;;;5019172;28;20742;-66
2022/10/17 07:30:53;;;;;;;9.82;7.57;;;16.50;99.90;;;;;;5032759;28;20212;-65
2022/10/17 07:33:20;;;;;;;13.00;7.28;;;16.80;99.90;;;;;;5017357;28;20404;-66
2022/10/17 07:35:48;;;;;;;10.50;6.72;;;16.80;1.00;;;;;;5002619;28;20650;-65
2022/10/17 07:38:15;;;;;;;7.38;6.03;;;17.10;1.00;;;;;;5018438;28;20201;-67
2022/10/17 07:40:42;;;;;;;9.50;6.20;;;17.30;1.00;;;;;;5002969;28;20197;-66
2022/10/17 07:43:09;;;;;;;8.93;5.53;;;17.40;1.00;;;;;;5032942;28;20296;-67
2022/10/17 07:45:36;;;;;;;9.32;5.57;;;17.50;1.00;;;;;;5017458;28;20216;-65
2022/10/17 07:48:03;;;;;;;6.70;5.63;;;17.60;1.00;;;;;;4999277;28;20307;-68
2022/10/17 07:50:31;;;;;;;7.53;5.57;;;17.80;1.00;;;;;;5030305;28;20204;-66
2022/10/17 07:52:58;;;;;;;10.65;5.35;;;17.90;1.00;;;;;;5017164;28;20223;-66
2022/10/17 07:55:25;;;;;;;9.43;6.15;;;18.10;99.90;;;;;;5000492;28;20633;-67
2022/10/17 07:57:52;;;;;;;6.30;5.65;;;18.30;99.90;;;;;;5001267;28;20225;-67
2022/10/17 08:00:19;;;;;;;11.50;7.10;;;18.50;99.90;;;;;;5028777;28;20197;-66
2022/10/17 08:02:46;;;;;;;15.55;5.20;;;18.80;99.90;;;;;;5002285;28;20185;-65
2022/10/17 08:05:14;;;;;;;14.65;6.82;;;19.00;1.00;;;;;;5032688;28;20287;-67
2022/10/17 08:07:41;;;;;;;6.25;5.65;;;19.20;1.00;;;;;;4997215;28;20245;-67
2022/10/17 08:10:10;;;;;;;9.48;4.60;;;19.30;1.00;;;;;;5001316;28;20220;-67
2022/10/17 08:12:37;;;;;;;8.20;4.70;;;19.20;99.90;;;;;;5016487;28;20204;-65
2022/10/17 08:15:06;;;;;;;5.85;4.10;;;19.30;99.90;;;;;;5002918;28;20193;-67
2022/10/17 08:17:35;;;;;;;8.00;3.78;;;19.30;1.00;;;;;;5002620;28;20215;-67
2022/10/17 08:20:04;;;;;;;7.07;3.58;;;19.50;99.90;;;;;;5001692;28;20196;-68
2022/10/17 08:22:31;;;;;;;5.63;3.70;;;19.70;99.90;;;;;;5000550;28;20217;-65
2022/10/17 08:24:58;;;;;;;6.55;3.13;;;19.90;99.90;;;;;;5032251;28;20205;-66
2022/10/17 08:27:27;;;;;;;5.13;3.67;;;20.00;99.90;;;;;;4998577;28;20315;-66
2022/10/17 08:29:54;;;;;;;6.20;3.40;;;20.00;99.90;;;;;;4983001;28;20569;-66
2022/10/17 08:32:25;;;;;;;4.57;3.33;;;20.00;99.90;;;;;;5001710;28;20208;-65
2022/10/17 08:34:53;;;;;;;9.50;3.47;;;20.10;99.90;;;;;;5001347;28;20260;-66
2022/10/17 08:37:21;;;;;;;4.30;3.05;;;20.00;99.90;;;;;;5031425;28;20205;-65
2022/10/17 08:39:48;;;;;;;7.28;3.15;;;20.10;99.90;;;;;;5016519;28;20751;-66
2022/10/17 08:42:52;;;;;;;5.55;3.08;;;20.20;99.90;;;;;;4998256;28;20224;-66
2022/10/17 08:45:46;;;;;;;6.88;2.90;;;20.50;71.60;;;;;;5016135;28;20193;-65
2022/10/17 08:48:17;;;;;;;10.18;3.28;;;20.90;1.00;;;;;;5000478;28;20292;-66
2022/10/17 08:51:23;;;;;;;6.53;3.05;;;22.00;1.00;;;;;;4998991;28;20201;-66
2022/10/17 08:54:11;;;;;;;7.68;2.92;;;24.00;1.00;;;;;;5000061;28;20204;-67
2022/10/17 08:56:47;;;;;;;4.43;2.55;;;24.90;1.00;;;;;;5000302;28;20664;-68
2022/10/17 08:59:20;;;;;;;4.45;2.53;;;26.00;1.00;;;;;;5001368;28;20227;-67
2022/10/17 09:02:13;;;;;;;7.70;2.88;;;25.80;1.00;;;;;;5001957;28;20284;-66
2022/10/17 09:05:02;;;;;;;5.47;2.85;;;27.40;1.00;;;;;;5000358;28;20211;-68
2022/10/17 09:08:11;;;;;;;5.50;2.45;;;26.70;1.00;;;;;;5001919;28;20700;-66
2022/10/17 09:10:52;;;;;;;5.65;2.40;;;27.10;1.00;;;;;;4997706;28;20204;-67
2022/10/17 09:13:33;;;;;;;5.53;2.25;;;28.00;1.00;;;;;;4999526;28;20209;-67
2022/10/17 09:16:22;;;;;;;6.80;3.00;;;28.30;1.00;;;;;;5015893;28;20673;-67
2022/10/17 09:19:02;;;;;;;7.57;2.05;;;29.90;1.00;;;;;;4999827;28;20188;-68
2022/10/17 09:21:53;;;;;;;10.60;2.65;;;30.50;1.00;;;;;;5013340;28;20696;-67
2022/10/17 09:24:58;;;;;;;7.15;2.28;;;31.10;1.00;;;;;;4999274;28;20200;-66
2022/10/17 09:27:29;;;;;;;3.97;2.15;;;31.00;1.00;;;;;;5014328;28;20201;-68
2022/10/17 09:30:18;;;;;;;7.78;2.58;;;28.20;1.00;;;;;;4998120;28;20189;-67
2022/10/17 09:33:13;;;;;;;9.73;2.55;;;26.80;1.00;;;;;;5010375;28;20682;-68
2022/10/17 09:36:03;;;;;;;8.75;2.60;;;25.80;1.00;;;;;;5000906;28;20200;-66
2022/10/17 09:38:39;;;;;;;7.57;3.03;;;25.00;1.00;;;;;;5014946;28;20312;-68
2022/10/17 09:41:15;;;;;;;3.75;2.30;;;25.00;1.00;;;;;;4996235;28;20291;-70
2022/10/17 09:44:22;;;;;;;7.72;2.55;;;26.80;1.00;;;;;;5014057;28;20457;-70
2022/10/17 09:46:55;;;;;;;5.32;2.50;;;27.30;1.00;;;;;;4998236;28;20200;-71
2022/10/17 09:49:31;;;;;;;9.85;2.90;;;29.10;1.00;;;;;;4997978;28;20214;-70
2022/10/17 09:52:04;;;;;;;5.57;2.58;;;29.50;1.00;;;;;;5000864;28;20204;-66
2022/10/17 09:54:47;;;;;;;10.50;2.67;;;30.60;1.00;;;;;;5031663;28;20204;-66
2022/10/17 09:57:17;;;;;;;8.13;2.30;;;30.40;1.00;;;;;;5026741;28;20232;-67
2022/10/17 09:59:59;;;;;;;6.15;2.40;;;31.30;1.00;;;;;;4998299;28;20280;-66
2022/10/17 10:02:28;;;;;;;8.48;2.60;;;33.60;1.00;;;;;;5002294;28;20271;-66
2022/10/17 10:05:19;;;;;;;5.63;2.33;;;32.40;1.00;;;;;;4997702;28;20200;-68
2022/10/17 10:08:18;;;;;;;4.70;2.20;;;34.00;1.00;;;;;;5012847;28;20620;-66
2022/10/17 10:10:47;;;;;;;5.20;2.40;;;33.40;1.00;;;;;;4960301;28;20244;-66
2022/10/17 10:13:14;;;;;;;5.53;2.50;;;32.30;1.00;;;;;;5030126;28;20325;-68
2022/10/17 10:15:44;;;;;;;7.88;2.45;;;32.00;1.00;;;;;;4996263;28;20198;-67
2022/10/17 10:18:23;;;;;;;11.15;2.65;;;31.80;1.00;;;;;;4998638;28;20614;-67
2022/10/17 10:21:07;;;;;;;7.38;2.42;;;33.00;1.00;;;;;;5004894;28;20201;-66
2022/10/17 10:23:38;;;;;;;6.75;2.53;;;31.40;1.00;;;;;;4998961;28;20660;-67
2022/10/17 10:26:16;;;;;;;8.55;2.80;;;30.00;1.00;;;;;;4998636;28;20202;-66
2022/10/17 10:29:01;;;;;;;7.72;2.83;;;28.40;1.00;;;;;;5010715;28;20236;-66
2022/10/17 10:31:38;;;;;;;8.88;2.38;;;26.00;1.00;;;;;;5027339;28;20197;-66
2022/10/17 10:34:27;;;;;;;4.28;2.67;;;24.60;1.00;;;;;;5000306;28;20292;-67
2022/10/17 10:37:02;;;;;;;8.40;3.10;;;24.10;1.00;;;;;;5011989;28;20320;-68
2022/10/17 10:39:44;;;;;;;3.83;2.65;;;24.00;1.00;;;;;;5036138;28;20199;-67
2022/10/17 10:42:36;;;;;;;9.65;2.80;;;23.80;1.00;;;;;;4998937;28;20182;-66
2022/10/17 10:45:14;;;;;;;7.18;2.50;;;23.60;1.00;;;;;;4998665;28;20193;-67
2022/10/17 10:48:10;;;;;;;5.30;2.55;;;23.40;1.00;;;;;;5011448;28;20189;-67
2022/10/17 10:50:45;;;;;;;9.73;2.88;;;23.40;1.00;;;;;;4998808;28;20706;-66
2022/10/17 10:53:24;;;;;;;3.42;2.78;;;23.30;1.00;;;;;;5015122;28;20188;-68
2022/10/17 10:55:57;;;;;;;4.55;2.42;;;23.10;1.00;;;;;;5002367;28;20663;-67
2022/10/17 10:58:27;;;;;;;8.48;2.70;;;23.00;1.00;;;;;;5002111;28;20213;-68
2022/10/17 11:00:56;;;;;;;4.57;2.75;;;22.90;1.00;;;;;;5017218;28;20198;-68
2022/10/17 11:03:52;;;;;;;7.75;2.95;;;22.90;1.00;;;;;;5017854;28;20243;-67
2022/10/17 11:06:26;;;;;;;7.55;3.20;;;22.90;1.00;;;;;;5001915;28;20691;-68
2022/10/17 11:09:21;;;;;;;6.30;3.30;;;23.00;1.00;;;;;;5019771;28;20211;-67
2022/10/17 11:11:57;;;;;;;9.95;3.08;;;22.80;1.00;;;;;;5003078;28;20379;-65
2022/10/17 11:14:42;;;;;;;4.88;2.60;;;22.60;1.00;;;;;;5034688;28;20293;-67
2022/10/17 11:17:37;;;;;;;4.53;3.03;;;22.60;1.00;;;;;;5017878;28;20239;-66
2022/10/17 11:20:29;;;;;;;7.53;2.78;;;22.80;1.00;;;;;;5016158;28;20216;-68
2022/10/17 11:23:11;;;;;;;4.00;2.60;;;22.90;1.00;;;;;;5000626;28;20220;-65
2022/10/17 11:25:39;;;;;;;9.98;2.95;;;23.00;1.00;;;;;;5033043;28;20560;-68
2022/10/17 11:28:15;;;;;;;10.85;2.90;;;23.00;1.00;;;;;;4999602;28;20205;-66
2022/10/17 11:31:11;;;;;;;5.32;2.53;;;22.90;1.00;;;;;;5018177;28;20271;-67
2022/10/17 11:33:43;;;;;;;5.60;3.33;;;22.80;1.00;;;;;;5032736;28;20193;-69
2022/10/17 11:36:11;;;;;;;10.10;3.30;;;22.60;1.00;;;;;;5000489;28;21081;-68
2022/10/17 11:38:44;;;;;;;8.77;3.05;;;22.30;1.00;;;;;;5001402;28;20210;-70
2022/10/17 11:41:17;;;;;;;6.97;3.03;;;22.30;1.00;;;;;;5000495;28;20207;-68
2022/10/17 11:43:50;;;;;;;6.13;3.00;;;22.30;1.00;;;;;;4998782;28;20587;-69
2022/10/17 11:46:23;;;;;;;5.75;2.95;;;22.30;1.00;;;;;;5028122;28;20321;-70
2022/10/17 11:48:56;;;;;;;5.55;2.88;;;22.20;1.00;;;;;;5033984;28;20268;-66
2022/10/17 11:51:23;;;;;;;5.15;3.08;;;22.20;1.00;;;;;;5000110;28;20251;-67
2022/10/17 11:54:36;;;;;;;7.93;3.08;;;22.10;1.00;;;;;;5012070;28;20866;-67
2022/10/17 11:57:36;;;;;;;6.75;3.20;;;22.00;1.00;;;;;;5032145;28;20240;-70
2022/10/17 12:00:20;;;;;;;9.50;3.15;;;21.90;1.00;;;;;;5035027;28;20201;-71
2022/10/17 12:02:56;;;;;;;5.35;3.25;;;21.90;1.00;;;;;;5004080;28;20184;-71
2022/10/17 12:05:44;;;;;;;8.00;3.25;;;21.90;1.00;;;;;;5030646;28;21052;-72
2022/10/17 12:08:23;;;;;;;6.72;3.28;;;21.80;1.00;;;;;;5001050;28;20229;-72
2022/10/17 12:11:27;;;;;;;10.10;3.50;;;21.70;1.00;;;;;;5002923;28;20198;-71
2022/10/17 12:13:55;;;;;;;7.68;3.20;;;21.70;1.00;;;;;;5015443;28;20360;-71
2022/10/17 12:16:22;;;;;;;5.45;2.83;;;21.90;1.00;;;;;;5000677;28;20886;-72
2022/10/17 12:19:01;;;;;;;6.85;2.88;;;21.80;1.00;;;;;;5016898;28;20219;-70
2022/10/17 12:21:55;;;;;;;10.10;3.03;;;21.90;1.00;;;;;;5033130;28;20987;-72
2022/10/17 12:24:34;;;;;;;8.95;3.03;;;21.90;1.00;;;;;;4999830;28;20224;-71
2022/10/17 12:27:32;;;;;;;8.25;2.75;;;22.20;1.00;;;;;;5002628;28;20250;-70
2022/10/17 12:30:18;;;;;;;5.03;3.13;;;22.20;1.00;;;;;;5003267;28;20201;-70
2022/10/17 12:33:20;;;;;;;10.90;3.08;;;22.10;1.00;;;;;;5018257;28;20202;-71
2022/10/17 12:36:11;;;;;;;7.00;2.95;;;22.20;1.00;;;;;;5002389;28;20650;-71
2022/10/17 12:38:38;;;;;;;5.47;3.00;;;22.10;1.00;;;;;;5000927;28;20275;-71
2022/10/17 12:41:05;;;;;;;5.88;3.13;;;22.10;1.00;;;;;;5005641;28;20196;-70
2022/10/17 12:43:41;;;;;;;8.00;3.17;;;22.10;1.00;;;;;;5018891;28;20232;-70
2022/10/17 12:46:11;;;;;;;5.53;3.03;;;22.10;1.00;;;;;;5001147;28;20694;-71
2022/10/17 12:48:40;;;;;;;5.18;3.10;;;22.10;1.00;;;;;;5007567;28;20271;-70
2022/10/17 12:51:10;;;;;;;7.05;2.97;;;22.10;1.00;;;;;;5000699;28;20248;-71
2022/10/17 12:53:57;;;;;;;3.95;2.70;;;22.00;1.00;;;;;;5003036;28;20212;-70
2022/10/17 12:56:40;;;;;;;10.20;3.35;;;22.00;1.00;;;;;;5008375;28;20307;-70
2022/10/17 12:59:23;;;;;;;5.90;3.10;;;21.90;1.00;;;;;;4984395;28;20252;-70
2022/10/17 13:01:56;;;;;;;7.35;3.78;;;21.80;1.00;;;;;;5017696;28;20222;-70
2022/10/17 13:04:24;;;;;;;8.27;3.40;;;22.00;1.00;;;;;;5034631;28;20261;-70
2022/10/17 13:06:55;;;;;;;8.68;2.92;;;22.20;1.00;;;;;;5015454;28;20236;-71
2022/10/17 13:09:34;;;;;;;6.90;3.30;;;22.30;1.00;;;;;;4998762;28;20243;-71
2022/10/17 13:12:09;;;;;;;7.97;3.30;;;22.20;1.00;;;;;;5016125;28;20212;-71
2022/10/17 13:14:41;;;;;;;12.00;3.40;;;22.20;1.00;;;;;;5001964;28;20204;-71
2022/10/17 13:17:29;;;;;;;7.15;3.60;;;22.20;1.00;;;;;;5001868;28;20220;-70
2022/10/17 13:19:57;;;;;;;13.10;3.90;;;22.00;1.00;;;;;;5016436;28;20212;-72
2022/10/17 13:22:27;;;;;;;4.88;2.72;;;22.00;1.00;;;;;;4998788;28;20189;-71
2022/10/17 13:25:19;;;;;;;8.25;3.13;;;22.10;1.00;;;;;;5031471;28;20197;-70